General Aviation Weather

Text Reports

Enter one or more of the following location identifiers separated by a space:

Zip Code, Four-Character ICAO or Three-Character IATA airport codes.

METAR - Aviation Routine Weather Report
KUOX - Oxford, Mississippi
Updated at 2:35 PM GMT on July 26, 2016 (9:35 AM CDT):
METAR KUOX 261435Z AUTO 00000KT 9SM CLR 29/22 A3004 RMK AO2
TAF - Terminal Area Forecast
KUOX - Oxford, Mississippi
Updated at 2:35 PM GMT on July 26, 2016 (9:35 AM CDT):
No TAF is currently available for this location.
Decoded:
No decoded TAF is available.
PIREP - Pilot Weather Report
KUOX - Oxford, Mississippi
Updated at 2:35 PM GMT on July 26, 2016 (9:35 AM CDT):
No PIREP is currently available for this location.
AIRMET - Airmens Meteorological Information
KUOX - Oxford, Mississippi
Updated at 2:35 PM GMT on July 26, 2016 (9:35 AM CDT):
No AIRMET is currently available for this location.
SIGMET - Significant Meteorological Information
KUOX - Oxford, Mississippi
Updated at 2:35 PM GMT on July 26, 2016 (9:35 AM CDT):
No SIGMET is currently available for this location.
NOTAM - Notice to Airmen
KUOX - Oxford, Mississippi
Updated at 2:35 PM GMT on July 26, 2016 (9:35 AM CDT):
No NOTAM is currently available for this location.
Forecast Area
KUOX - Oxford, Mississippi
Updated at 2:35 PM GMT on July 26, 2016 (9:35 AM CDT):
No NOTAM is currently available for this location.
Aviation Weather Maps